Time;durP1;ratioP1;P1;durP2;ratioP2;P2;SDS_P1;SDS_P2;PMS_P1;PMS_P2;Temp;Humidity;BMP_temperature;BMP_pressure;BME280_temperature;BME280_humidity;BME280_pressure;Samples;Min_cycle;Max_cycle;Signal;HPM_P1;HPM_P2
2022/05/28 00:01:35;;;;;;;0.50;0.40;;;11.90;99.90;;;;;;5021101;28;20222;-82
2022/05/28 00:04:04;;;;;;;1.03;1.03;;;11.90;99.90;;;;;;5021366;28;20226;-82
2022/05/28 00:06:32;;;;;;;0.53;0.53;;;11.90;99.90;;;;;;5021241;28;20230;-83
2022/05/28 00:08:58;;;;;;;0.20;0.20;;;11.90;99.90;;;;;;5022754;28;20482;-82
2022/05/28 00:11:37;;;;;;;0.20;0.20;;;11.90;99.90;;;;;;5020766;28;20296;-81
2022/05/28 00:14:05;;;;;;;0.20;0.20;;;11.90;99.90;;;;;;5022731;28;20232;-83
2022/05/28 00:16:31;;;;;;;1.93;0.70;;;11.90;99.90;;;;;;5022748;28;20567;-82
2022/05/28 00:18:56;;;;;;;0.43;0.43;;;11.80;99.90;;;;;;5021155;28;20222;-84
2022/05/28 00:21:24;;;;;;;2.20;0.73;;;11.80;99.90;;;;;;5004652;28;20226;-82
2022/05/28 00:23:51;;;;;;;0.67;0.63;;;11.90;99.90;;;;;;5021787;28;20183;-84
2022/05/28 00:26:17;;;;;;;2.73;1.30;;;11.70;99.90;;;;;;5004584;28;20458;-82
2022/05/28 00:28:43;;;;;;;0.40;0.40;;;11.70;99.90;;;;;;5021067;28;20226;-83
2022/05/28 00:31:10;;;;;;;0.20;0.20;;;11.60;99.90;;;;;;5020860;28;20714;-83
2022/05/28 00:33:36;;;;;;;1.10;0.43;;;11.70;99.90;;;;;;5004364;28;20219;-83
2022/05/28 00:36:06;;;;;;;0.20;0.20;;;11.70;99.90;;;;;;5020919;28;20638;-82
2022/05/28 00:38:32;;;;;;;0.20;0.20;;;11.60;99.90;;;;;;5022822;28;20186;-82
2022/05/28 00:40:59;;;;;;;0.87;0.30;;;11.50;99.90;;;;;;5021160;28;20581;-81
2022/05/28 00:43:27;;;;;;;0.40;0.40;;;11.50;99.90;;;;;;5023236;28;20229;-81
2022/05/28 00:46:03;;;;;;;0.43;0.20;;;11.50;99.90;;;;;;5024460;28;20219;-84
2022/05/28 00:48:34;;;;;;;0.87;0.83;;;11.60;99.90;;;;;;5024567;28;20284;-82
2022/05/28 00:51:07;;;;;;;0.10;0.10;;;11.50;99.90;;;;;;5024197;28;20186;-82
2022/05/28 00:53:34;;;;;;;0.33;0.33;;;11.50;99.90;;;;;;5026294;28;20174;-83
2022/05/28 00:56:02;;;;;;;0.87;0.30;;;11.50;99.90;;;;;;5025576;28;20604;-84
2022/05/28 00:58:29;;;;;;;0.37;0.37;;;11.40;99.90;;;;;;5025728;28;20253;-84
2022/05/28 01:00:55;;;;;;;3.73;0.80;;;11.50;99.90;;;;;;5024381;28;20215;-82
2022/05/28 01:03:26;;;;;;;5.67;0.90;;;11.60;99.90;;;;;;5023860;28;20493;-82
2022/05/28 01:05:57;;;;;;;0.30;0.30;;;11.50;99.90;;;;;;5026069;28;20193;-83
2022/05/28 01:09:00;;;;;;;0.10;0.10;;;11.50;99.90;;;;;;5025096;28;20223;-83
2022/05/28 01:11:36;;;;;;;0.30;0.30;;;11.60;99.90;;;;;;5025566;28;20434;-82
2022/05/28 01:14:42;;;;;;;0.20;0.20;;;11.50;99.90;;;;;;5024641;28;20222;-82
2022/05/28 01:17:21;;;;;;;0.37;0.23;;;11.50;99.90;;;;;;5023989;28;20264;-81
2022/05/28 01:19:51;;;;;;;0.10;0.10;;;11.50;99.90;;;;;;5025059;28;20309;-82
2022/05/28 01:22:24;;;;;;;0.67;0.40;;;11.50;99.90;;;;;;5025153;28;20313;-83
2022/05/28 01:25:38;;;;;;;0.40;0.30;;;11.40;99.90;;;;;;5023328;28;20309;-83
2022/05/28 01:28:10;;;;;;;0.40;0.40;;;11.40;99.90;;;;;;5023263;28;20221;-82
2022/05/28 01:30:40;;;;;;;0.30;0.30;;;11.50;99.90;;;;;;5023749;28;20226;-82
2022/05/28 01:33:08;;;;;;;1.70;0.40;;;11.60;99.90;;;;;;5024650;28;20195;-82
2022/05/28 01:35:36;;;;;;;3.70;0.83;;;11.60;99.90;;;;;;5024150;28;20726;-83
2022/05/28 01:38:04;;;;;;;0.30;0.30;;;11.60;99.90;;;;;;5025070;28;20218;-82
2022/05/28 01:40:30;;;;;;;0.37;0.23;;;11.60;99.90;;;;;;5025266;28;20639;-82
2022/05/28 01:43:03;;;;;;;1.50;0.83;;;11.60;99.90;;;;;;5026479;28;20721;-82
2022/05/28 01:45:31;;;;;;;2.97;1.40;;;11.60;99.90;;;;;;5022815;28;20222;-82
2022/05/28 01:48:03;;;;;;;0.30;0.30;;;11.60;99.90;;;;;;5023733;28;20309;-82
2022/05/28 01:50:33;;;;;;;0.50;0.23;;;11.60;99.90;;;;;;5024867;28;20575;-83
2022/05/28 01:53:04;;;;;;;0.70;0.47;;;11.60;99.90;;;;;;5024208;28;20236;-82
2022/05/28 01:55:35;;;;;;;4.10;0.97;;;11.60;99.90;;;;;;5022572;28;20218;-81
2022/05/28 01:58:01;;;;;;;0.97;0.80;;;11.60;99.90;;;;;;5024425;28;20585;-82
2022/05/28 02:00:27;;;;;;;0.47;0.47;;;11.70;99.90;;;;;;4990098;28;20222;-82
2022/05/28 02:02:56;;;;;;;0.30;0.30;;;11.70;99.90;;;;;;5023497;28;20197;-82
2022/05/28 02:05:22;;;;;;;3.03;2.23;;;11.70;99.90;;;;;;5022791;28;20704;-81
2022/05/28 02:07:48;;;;;;;0.73;0.73;;;11.60;99.90;;;;;;4990690;28;20678;-81
2022/05/28 02:10:17;;;;;;;0.63;0.63;;;11.60;99.90;;;;;;5022522;28;20234;-81
2022/05/28 02:13:24;;;;;;;0.40;0.40;;;11.50;99.90;;;;;;5023655;28;20301;-82
2022/05/28 02:15:55;;;;;;;0.93;0.70;;;11.50;99.90;;;;;;5014953;28;20221;-83
2022/05/28 02:18:30;;;;;;;0.57;0.57;;;11.50;99.90;;;;;;5022250;28;20226;-81
2022/05/28 02:21:06;;;;;;;0.43;0.40;;;11.50;99.90;;;;;;5024660;28;20219;-82
2022/05/28 02:23:38;;;;;;;0.30;0.30;;;11.60;99.90;;;;;;5023398;28;20249;-83
2022/05/28 02:26:27;;;;;;;0.30;0.30;;;11.60;99.90;;;;;;5022931;28;20226;-81
2022/05/28 02:28:53;;;;;;;2.10;0.43;;;11.50;99.90;;;;;;5022656;28;20814;-83
2022/05/28 02:31:31;;;;;;;0.40;0.33;;;11.50;99.90;;;;;;5022465;28;20226;-81
2022/05/28 02:33:58;;;;;;;1.60;0.70;;;11.50;99.90;;;;;;5023814;28;20706;-82
2022/05/28 02:36:24;;;;;;;0.27;0.27;;;11.40;99.90;;;;;;5039077;28;20353;-82
2022/05/28 02:38:51;;;;;;;1.17;0.77;;;11.40;99.90;;;;;;5022985;28;20659;-84
2022/05/28 02:41:18;;;;;;;0.70;0.70;;;11.40;99.90;;;;;;5022097;28;20590;-82
2022/05/28 02:43:44;;;;;;;0.13;0.13;;;11.40;99.90;;;;;;5021442;28;20226;-83
2022/05/28 02:46:10;;;;;;;1.27;0.43;;;11.50;99.90;;;;;;5006102;28;20230;-81
2022/05/28 02:48:38;;;;;;;1.00;0.90;;;11.40;99.90;;;;;;5005854;28;20345;-83
2022/05/28 02:51:06;;;;;;;0.37;0.30;;;11.40;99.90;;;;;;5023466;28;20682;-81
2022/05/28 02:53:32;;;;;;;0.50;0.50;;;11.40;99.90;;;;;;5022822;28;20218;-82
2022/05/28 02:55:58;;;;;;;0.53;0.53;;;11.50;99.90;;;;;;5022404;28;20222;-82
2022/05/28 02:58:24;;;;;;;0.27;0.27;;;11.40;99.90;;;;;;5021847;28;20222;-81
2022/05/28 03:00:50;;;;;;;1.70;1.07;;;11.50;99.90;;;;;;5022060;28;20229;-81
2022/05/28 03:03:19;;;;;;;1.07;0.23;;;11.40;99.90;;;;;;5005755;28;20277;-84
2022/05/28 03:05:50;;;;;;;2.73;0.50;;;11.50;99.90;;;;;;5005875;28;20195;-83
2022/05/28 03:08:16;;;;;;;1.25;1.00;;;11.50;99.90;;;;;;5006338;28;20572;-81
2022/05/28 03:10:43;;;;;;;0.20;0.20;;;11.50;99.90;;;;;;5021619;28;20220;-83
2022/05/28 03:13:08;;;;;;;0.50;0.50;;;11.40;99.90;;;;;;5021723;28;20222;-81
2022/05/28 03:15:35;;;;;;;5.37;0.97;;;11.30;99.90;;;;;;5021708;28;20241;-81
2022/05/28 03:18:01;;;;;;;0.50;0.50;;;11.30;99.90;;;;;;5021671;28;20213;-83
2022/05/28 03:20:28;;;;;;;2.77;0.67;;;11.30;99.90;;;;;;5004574;28;20194;-81
2022/05/28 03:22:54;;;;;;;4.23;0.50;;;11.20;99.90;;;;;;5021969;28;20214;-81
2022/05/28 03:25:21;;;;;;;2.10;0.67;;;11.20;99.90;;;;;;5004838;28;20683;-83
2022/05/28 03:27:47;;;;;;;0.30;0.20;;;11.20;99.90;;;;;;5022814;28;20222;-82
2022/05/28 03:30:13;;;;;;;0.30;0.30;;;11.30;99.90;;;;;;5021325;28;20250;-82
2022/05/28 03:32:39;;;;;;;0.67;0.67;;;11.30;99.90;;;;;;5021829;28;20248;-83
2022/05/28 03:35:05;;;;;;;0.40;0.40;;;11.30;99.90;;;;;;5031786;28;20262;-82
2022/05/28 03:37:31;;;;;;;0.77;0.77;;;11.30;99.90;;;;;;5021550;28;20218;-81
2022/05/28 03:39:57;;;;;;;7.10;0.50;;;11.40;99.90;;;;;;5021251;28;20225;-82
2022/05/28 03:42:22;;;;;;;0.37;0.37;;;11.30;99.90;;;;;;5004926;28;20222;-82
2022/05/28 03:44:48;;;;;;;1.90;0.50;;;11.20;99.90;;;;;;4989063;28;20206;-81
2022/05/28 03:47:14;;;;;;;2.73;1.80;;;11.20;99.90;;;;;;5022627;28;20226;-82
2022/05/28 03:49:42;;;;;;;4.20;0.50;;;11.20;99.90;;;;;;5020655;28;20365;-81
2022/05/28 03:52:09;;;;;;;0.20;0.20;;;11.20;99.90;;;;;;5021033;28;20260;-82
2022/05/28 03:54:35;;;;;;;1.90;0.70;;;11.20;99.90;;;;;;5020815;28;20226;-80
2022/05/28 03:57:08;;;;;;;5.07;1.70;;;11.10;99.90;;;;;;5022496;28;20201;-81
2022/05/28 03:59:34;;;;;;;0.30;0.30;;;11.10;99.90;;;;;;5021486;28;20187;-82
2022/05/28 04:02:01;;;;;;;0.20;0.20;;;11.10;99.90;;;;;;5021444;28;20284;-82
2022/05/28 04:04:27;;;;;;;0.67;0.60;;;11.10;99.90;;;;;;5024833;28;20248;-83
2022/05/28 04:06:53;;;;;;;1.50;0.40;;;11.10;99.90;;;;;;5020451;28;20216;-82
2022/05/28 04:09:18;;;;;;;0.27;0.27;;;11.20;99.90;;;;;;5021004;28;20702;-82
2022/05/28 04:11:44;;;;;;;0.40;0.40;;;11.30;99.90;;;;;;5021615;28;20248;-82
2022/05/28 04:14:10;;;;;;;0.60;0.50;;;11.40;99.90;;;;;;5022318;28;20226;-82
2022/05/28 04:16:36;;;;;;;0.40;0.40;;;11.40;99.90;;;;;;5004516;28;20222;-82
2022/05/28 04:19:03;;;;;;;0.60;0.60;;;11.40;99.90;;;;;;5025889;28;20330;-81
2022/05/28 04:21:29;;;;;;;0.30;0.30;;;11.40;99.90;;;;;;5041021;28;20762;-84
2022/05/28 04:23:55;;;;;;;0.50;0.50;;;11.40;99.90;;;;;;5025322;28;20495;-83
2022/05/28 04:26:20;;;;;;;0.40;0.40;;;11.50;99.90;;;;;;5008566;28;20670;-80
2022/05/28 04:28:46;;;;;;;1.13;1.03;;;11.50;99.90;;;;;;5026009;28;20280;-83
2022/05/28 04:31:12;;;;;;;0.33;0.33;;;11.50;99.90;;;;;;5024708;28;20702;-81
2022/05/28 04:33:38;;;;;;;0.20;0.20;;;11.70;99.90;;;;;;5026000;28;20226;-82
2022/05/28 04:36:03;;;;;;;0.30;0.30;;;11.70;99.90;;;;;;4991860;28;20478;-82
2022/05/28 04:38:29;;;;;;;0.20;0.20;;;11.70;99.90;;;;;;5026212;28;20186;-81
2022/05/28 04:40:55;;;;;;;0.73;0.73;;;11.70;99.90;;;;;;5024431;28;20621;-82
2022/05/28 04:43:20;;;;;;;1.10;0.63;;;11.70;99.90;;;;;;4991535;28;20237;-81
2022/05/28 04:45:46;;;;;;;3.00;0.40;;;11.60;99.90;;;;;;5025340;28;20224;-84
2022/05/28 04:48:13;;;;;;;0.50;0.50;;;11.70;99.90;;;;;;5024375;28;20195;-81
2022/05/28 04:50:39;;;;;;;0.50;0.40;;;11.70;99.90;;;;;;5024560;28;20233;-82
2022/05/28 04:53:05;;;;;;;0.30;0.30;;;11.70;99.90;;;;;;5025929;28;20484;-82
2022/05/28 04:55:31;;;;;;;0.30;0.30;;;11.70;99.90;;;;;;5025576;28;20709;-82
2022/05/28 04:57:57;;;;;;;1.93;0.57;;;11.70;99.90;;;;;;5025997;28;20222;-83
2022/05/28 05:00:25;;;;;;;0.37;0.37;;;11.70;99.90;;;;;;5025438;28;20233;-83
2022/05/28 05:02:51;;;;;;;2.30;0.60;;;11.70;99.90;;;;;;5024411;28;20193;-82
2022/05/28 05:05:17;;;;;;;0.40;0.40;;;11.70;99.90;;;;;;5024702;28;20215;-83
2022/05/28 05:07:43;;;;;;;0.10;0.10;;;11.80;99.90;;;;;;5025262;28;20222;-81
2022/05/28 05:10:10;;;;;;;1.43;0.50;;;11.80;99.90;;;;;;5025512;28;20313;-81
2022/05/28 05:12:36;;;;;;;0.50;0.50;;;11.80;99.90;;;;;;5025818;28;20233;-82
2022/05/28 05:15:02;;;;;;;0.20;0.20;;;11.80;99.90;;;;;;5025146;28;20195;-84
2022/05/28 05:17:28;;;;;;;1.27;1.20;;;11.80;99.90;;;;;;5025224;28;20191;-81
2022/05/28 05:19:54;;;;;;;0.47;0.47;;;11.90;99.90;;;;;;5008061;28;20232;-81
2022/05/28 05:22:21;;;;;;;4.10;1.13;;;11.90;99.90;;;;;;5023837;28;20222;-82
2022/05/28 05:24:46;;;;;;;1.57;0.60;;;11.90;99.90;;;;;;5025547;28;20218;-82
2022/05/28 05:27:13;;;;;;;1.20;1.03;;;12.00;99.90;;;;;;5007352;28;20194;-82
2022/05/28 05:29:39;;;;;;;0.97;0.40;;;12.00;99.90;;;;;;5022538;28;20334;-82
2022/05/28 05:32:06;;;;;;;3.00;1.53;;;12.00;99.90;;;;;;5007561;28;20230;-83
2022/05/28 05:34:32;;;;;;;1.33;1.23;;;12.00;99.90;;;;;;5016075;28;20237;-82
2022/05/28 05:36:58;;;;;;;1.03;0.47;;;12.00;99.90;;;;;;5006814;28;20214;-83
2022/05/28 05:39:23;;;;;;;3.30;0.70;;;12.10;99.90;;;;;;5023418;28;20219;-81
2022/05/28 05:41:49;;;;;;;1.33;0.93;;;12.20;99.90;;;;;;4991152;28;20397;-83
2022/05/28 05:44:16;;;;;;;0.20;0.20;;;12.30;99.90;;;;;;5023452;28;20211;-82
2022/05/28 05:46:43;;;;;;;0.40;0.40;;;12.30;99.90;;;;;;4999395;28;20215;-82
2022/05/28 05:49:10;;;;;;;0.87;0.43;;;12.10;99.90;;;;;;5023452;28;20230;-82
2022/05/28 05:51:46;;;;;;;8.40;0.63;;;12.10;99.90;;;;;;5023393;28;20233;-82
2022/05/28 05:54:14;;;;;;;1.13;0.57;;;12.00;99.90;;;;;;5025177;28;20185;-83
2022/05/28 05:56:40;;;;;;;0.43;0.43;;;12.00;99.90;;;;;;5023444;28;20810;-83
2022/05/28 05:59:05;;;;;;;2.33;0.73;;;12.00;99.90;;;;;;5007057;28;20262;-82
2022/05/28 06:01:32;;;;;;;0.67;0.67;;;12.20;99.90;;;;;;5006214;28;20229;-82
2022/05/28 06:03:58;;;;;;;0.47;0.33;;;12.30;99.90;;;;;;5024200;28;20218;-82
2022/05/28 06:06:24;;;;;;;0.30;0.30;;;12.30;99.90;;;;;;5023257;28;20703;-82
2022/05/28 06:08:50;;;;;;;0.27;0.27;;;12.30;99.90;;;;;;5024135;28;20214;-82
2022/05/28 06:11:16;;;;;;;1.03;0.70;;;12.40;99.90;;;;;;5023344;28;20678;-83
2022/05/28 06:13:41;;;;;;;4.33;1.00;;;12.30;99.90;;;;;;5023407;28;20219;-86
2022/05/28 06:16:07;;;;;;;2.93;1.50;;;12.30;99.90;;;;;;5023453;28;20219;-84
2022/05/28 06:18:33;;;;;;;5.80;1.07;;;12.30;99.90;;;;;;5006076;28;20288;-85
2022/05/28 06:21:00;;;;;;;0.60;0.60;;;12.30;99.90;;;;;;5023922;28;20195;-83
2022/05/28 06:23:27;;;;;;;0.40;0.40;;;12.30;99.90;;;;;;5024739;28;20226;-84
2022/05/28 06:25:52;;;;;;;0.30;0.30;;;12.40;99.90;;;;;;5006776;28;20620;-84
2022/05/28 06:28:19;;;;;;;1.57;0.90;;;12.40;99.90;;;;;;5024374;28;20257;-84
2022/05/28 06:30:46;;;;;;;2.63;1.57;;;12.50;99.90;;;;;;5023964;28;20241;-84
2022/05/28 06:33:12;;;;;;;1.03;0.80;;;12.60;99.90;;;;;;5023193;28;20235;-84
2022/05/28 06:35:38;;;;;;;1.90;0.67;;;12.50;99.90;;;;;;5027104;28;20183;-84
2022/05/28 06:38:04;;;;;;;0.67;0.30;;;12.40;99.90;;;;;;5024713;28;20284;-84
2022/05/28 06:40:31;;;;;;;2.87;1.23;;;12.30;99.90;;;;;;4990325;28;20667;-85
2022/05/28 06:43:03;;;;;;;0.47;0.47;;;12.40;99.90;;;;;;5022429;28;20218;-84
2022/05/28 06:45:29;;;;;;;0.37;0.37;;;12.60;99.90;;;;;;5021688;28;20214;-84
2022/05/28 06:47:55;;;;;;;1.63;1.53;;;12.80;99.90;;;;;;5022747;28;20592;-82
2022/05/28 06:53:10;;;;;;;1.80;1.00;;;12.90;99.90;;;;;;5009298;28;20735;-84
2022/05/28 06:55:37;;;;;;;1.53;0.87;;;13.60;99.90;;;;;;5022441;28;20214;-83
2022/05/28 06:58:04;;;;;;;1.63;1.47;;;13.90;99.90;;;;;;5006698;28;20218;-84
2022/05/28 07:00:30;;;;;;;2.33;1.20;;;13.50;99.90;;;;;;5022316;28;20226;-83
2022/05/28 07:02:56;;;;;;;3.27;1.00;;;13.10;99.90;;;;;;5024346;28;20197;-84
2022/05/28 07:05:23;;;;;;;4.33;0.90;;;13.00;99.90;;;;;;5022960;28;20240;-81
2022/05/28 07:07:48;;;;;;;2.00;1.03;;;12.90;99.90;;;;;;5023086;28;20215;-83
2022/05/28 07:10:14;;;;;;;0.90;0.90;;;12.60;99.90;;;;;;5020649;28;20229;-83
2022/05/28 07:12:40;;;;;;;1.57;0.93;;;12.50;99.90;;;;;;5021550;28;20221;-83
2022/05/28 07:15:07;;;;;;;5.53;0.97;;;12.40;99.90;;;;;;5005466;28;20678;-83
2022/05/28 07:17:32;;;;;;;0.30;0.30;;;12.40;99.90;;;;;;5023957;28;20220;-82
2022/05/28 07:19:58;;;;;;;1.23;0.80;;;12.50;99.90;;;;;;5005842;28;20589;-83
2022/05/28 07:22:24;;;;;;;5.93;0.83;;;12.50;99.90;;;;;;5021368;28;20250;-82
2022/05/28 07:24:50;;;;;;;0.47;0.30;;;12.50;99.90;;;;;;5022033;28;20234;-82
2022/05/28 07:27:16;;;;;;;1.87;0.40;;;12.50;99.90;;;;;;5006291;28;20288;-82
2022/05/28 07:29:42;;;;;;;0.83;0.67;;;12.50;99.90;;;;;;5025360;28;20251;-80
2022/05/28 07:32:08;;;;;;;6.27;0.70;;;12.70;99.90;;;;;;5023304;28;20583;-81
2022/05/28 07:34:34;;;;;;;1.57;1.50;;;13.00;99.90;;;;;;5021502;28;20301;-82
2022/05/28 07:37:00;;;;;;;0.43;0.40;;;13.30;99.90;;;;;;5005842;28;20245;-82
2022/05/28 07:39:26;;;;;;;0.77;0.50;;;13.20;99.90;;;;;;5005487;28;20710;-82
2022/05/28 07:41:52;;;;;;;0.50;0.50;;;12.90;99.90;;;;;;5022664;28;20191;-81
2022/05/28 07:44:18;;;;;;;0.63;0.37;;;13.20;99.90;;;;;;5023120;28;20222;-82
2022/05/28 07:46:44;;;;;;;1.17;1.07;;;13.20;99.90;;;;;;5020961;28;20707;-81
2022/05/28 07:49:10;;;;;;;13.67;1.63;;;13.00;99.90;;;;;;5022646;28;20310;-82
2022/05/28 07:51:35;;;;;;;0.33;0.33;;;13.10;99.90;;;;;;5020629;28;20252;-82
2022/05/28 07:54:02;;;;;;;0.90;0.80;;;13.60;99.90;;;;;;5005367;28;20194;-81
2022/05/28 07:56:28;;;;;;;0.83;0.77;;;13.30;99.90;;;;;;5022030;28;20187;-83
2022/05/28 07:58:59;;;;;;;0.23;0.23;;;13.60;99.90;;;;;;5021406;28;20558;-82
2022/05/28 08:01:29;;;;;;;0.77;0.57;;;13.60;99.90;;;;;;5020099;28;20218;-81
2022/05/28 08:03:59;;;;;;;1.37;0.53;;;14.30;99.90;;;;;;5022790;28;20218;-82
2022/05/28 08:06:25;;;;;;;1.87;0.70;;;14.50;99.90;;;;;;5020891;28;20218;-83
2022/05/28 08:08:54;;;;;;;3.00;1.27;;;14.50;99.90;;;;;;5021602;28;20218;-82
2022/05/28 08:11:21;;;;;;;1.50;0.53;;;14.50;99.90;;;;;;5021437;28;20741;-81
2022/05/28 08:14:09;;;;;;;2.83;1.13;;;14.50;99.90;;;;;;5021562;28;20529;-83
2022/05/28 08:16:34;;;;;;;1.10;0.97;;;15.10;99.90;;;;;;5021546;28;20655;-81
2022/05/28 08:19:00;;;;;;;1.80;0.60;;;14.70;99.90;;;;;;5022582;28;20233;-84
2022/05/28 08:24:10;;;;;;;0.83;0.73;;;14.10;99.90;;;;;;5023665;28;20187;-83
2022/05/28 08:26:38;;;;;;;2.50;1.10;;;14.10;99.90;;;;;;5022203;28;20198;-84
2022/05/28 08:29:05;;;;;;;1.90;0.87;;;15.00;99.90;;;;;;5022907;28;20254;-83
2022/05/28 08:31:31;;;;;;;2.20;0.70;;;14.90;99.90;;;;;;5024389;28;20233;-83
2022/05/28 08:33:57;;;;;;;1.43;0.90;;;15.00;99.90;;;;;;5005609;28;20249;-82
2022/05/28 08:36:24;;;;;;;4.17;1.97;;;14.90;99.90;;;;;;5022077;28;20241;-83
2022/05/28 08:38:50;;;;;;;10.00;2.50;;;14.90;99.90;;;;;;5022803;28;20369;-83
2022/05/28 08:41:24;;;;;;;2.67;0.70;;;14.40;99.90;;;;;;5023862;28;20227;-83
2022/05/28 08:43:58;;;;;;;2.40;0.60;;;14.30;99.90;;;;;;5024925;28;20272;-82
2022/05/28 08:46:26;;;;;;;0.90;0.80;;;14.20;99.90;;;;;;5023415;28;20221;-82
2022/05/28 08:48:57;;;;;;;3.40;0.77;;;14.10;99.90;;;;;;5021693;28;20273;-81
2022/05/28 08:51:39;;;;;;;2.40;0.63;;;14.40;99.90;;;;;;5021441;28;20625;-83
2022/05/28 08:54:20;;;;;;;2.67;1.03;;;14.20;99.90;;;;;;5022306;28;20182;-82
2022/05/28 08:56:48;;;;;;;2.27;1.17;;;14.80;99.90;;;;;;5022306;28;20407;-82
2022/05/28 08:59:38;;;;;;;1.10;0.63;;;14.70;99.90;;;;;;5020954;28;20222;-82
2022/05/28 09:02:16;;;;;;;1.23;0.60;;;14.90;99.90;;;;;;5022036;28;20737;-82
2022/05/28 09:04:44;;;;;;;4.20;0.70;;;14.60;99.90;;;;;;5021835;28;20590;-82
2022/05/28 09:07:13;;;;;;;3.07;0.80;;;14.50;99.90;;;;;;5024541;28;20226;-82
2022/05/28 09:09:46;;;;;;;0.20;0.20;;;15.10;99.90;;;;;;5025890;28;20234;-82
2022/05/28 09:12:39;;;;;;;2.60;1.07;;;15.50;99.90;;;;;;5023613;28;20187;-82
2022/05/28 09:15:05;;;;;;;3.80;1.90;;;15.10;99.90;;;;;;5023514;28;20309;-82
2022/05/28 09:17:38;;;;;;;0.47;0.47;;;14.70;99.90;;;;;;5007202;28;20182;-83
2022/05/28 09:20:09;;;;;;;1.03;0.50;;;14.20;99.90;;;;;;5024713;28;20744;-84
2022/05/28 09:22:35;;;;;;;1.23;1.13;;;14.10;99.90;;;;;;5021294;28;20244;-82
2022/05/28 09:25:01;;;;;;;0.50;0.50;;;14.30;99.90;;;;;;4990223;28;20227;-82
2022/05/28 09:27:49;;;;;;;10.30;1.23;;;14.80;99.90;;;;;;5024144;28;20211;-83
2022/05/28 09:30:25;;;;;;;3.37;0.40;;;14.90;99.90;;;;;;5024946;28;20330;-82
2022/05/28 09:33:03;;;;;;;0.73;0.73;;;15.00;99.90;;;;;;5024737;28;20193;-83
2022/05/28 09:35:49;;;;;;;0.50;0.50;;;15.40;99.90;;;;;;5024217;28;20577;-83
2022/05/28 09:38:39;;;;;;;3.30;0.40;;;15.20;99.90;;;;;;5040047;28;20301;-84
2022/05/28 09:41:44;;;;;;;1.30;0.93;;;14.60;99.90;;;;;;5024798;28;20687;-82
2022/05/28 09:44:09;;;;;;;3.80;0.70;;;14.40;99.90;;;;;;5025540;28;20242;-83
2022/05/28 09:46:38;;;;;;;1.90;0.50;;;14.40;99.90;;;;;;5023257;28;20265;-85
2022/05/28 09:49:23;;;;;;;2.60;1.30;;;14.10;99.90;;;;;;5024592;28;20257;-84
2022/05/28 09:52:09;;;;;;;1.87;0.67;;;13.90;99.90;;;;;;5024277;28;20233;-85
2022/05/28 09:54:36;;;;;;;1.67;0.70;;;14.00;99.90;;;;;;5025353;28;20221;-83
2022/05/28 09:57:28;;;;;;;1.40;0.30;;;14.40;99.90;;;;;;5025129;28;20226;-83
2022/05/28 10:00:00;;;;;;;2.77;0.53;;;14.50;99.90;;;;;;5024150;28;20265;-84
2022/05/28 10:02:27;;;;;;;0.40;0.40;;;14.80;99.90;;;;;;5024009;28;20214;-82
2022/05/28 10:05:02;;;;;;;0.30;0.30;;;14.20;99.90;;;;;;5025139;28;20276;-84
2022/05/28 10:07:31;;;;;;;3.83;0.73;;;14.10;99.90;;;;;;5025139;28;20222;-84
2022/05/28 10:09:57;;;;;;;2.43;0.80;;;14.50;99.90;;;;;;5023588;28;20313;-83
2022/05/28 10:12:28;;;;;;;2.10;1.87;;;14.40;99.90;;;;;;5024461;28;20214;-84
2022/05/28 10:15:08;;;;;;;2.50;0.63;;;15.20;99.90;;;;;;5022722;28;20183;-84
2022/05/28 10:17:35;;;;;;;7.67;1.37;;;15.50;99.90;;;;;;5024668;28;20539;-85
2022/05/28 10:20:04;;;;;;;2.63;0.70;;;15.30;99.90;;;;;;4990944;28;20218;-83
2022/05/28 10:22:30;;;;;;;0.70;0.70;;;15.00;99.90;;;;;;5024120;28;20219;-86
2022/05/28 10:25:01;;;;;;;2.20;2.00;;;15.40;99.90;;;;;;5023185;28;20218;-87
2022/05/28 10:27:50;;;;;;;0.97;0.63;;;15.00;99.90;;;;;;5022815;28;20305;-83
2022/05/28 10:30:25;;;;;;;0.60;0.60;;;14.40;99.90;;;;;;5022790;28;20724;-84
2022/05/28 10:32:52;;;;;;;0.30;0.30;;;14.00;99.90;;;;;;5023483;28;20236;-84
2022/05/28 10:35:27;;;;;;;1.40;1.13;;;13.70;99.90;;;;;;5007168;28;20694;-83
2022/05/28 10:38:04;;;;;;;3.07;0.60;;;13.50;99.90;;;;;;5022916;28;20698;-86
2022/05/28 10:40:30;;;;;;;2.60;1.53;;;13.50;99.90;;;;;;5022845;28;20841;-84
2022/05/28 10:43:00;;;;;;;1.23;0.50;;;13.60;99.90;;;;;;5022816;28;20301;-83
2022/05/28 10:45:42;;;;;;;1.03;0.47;;;13.60;99.90;;;;;;5022629;28;20564;-85
2022/05/28 10:48:29;;;;;;;1.97;0.50;;;13.90;99.90;;;;;;5021299;28;20178;-83
2022/05/28 10:51:05;;;;;;;0.50;0.50;;;14.90;99.90;;;;;;5022750;28;20201;-85
2022/05/28 10:53:57;;;;;;;0.47;0.47;;;14.70;99.90;;;;;;5023606;28;20210;-82
2022/05/28 10:56:50;;;;;;;0.20;0.20;;;14.10;99.90;;;;;;5015047;28;20211;-84
2022/05/28 10:59:18;;;;;;;3.90;0.53;;;14.20;99.90;;;;;;5022448;28;20448;-83
2022/05/28 11:02:02;;;;;;;4.47;0.60;;;14.90;99.90;;;;;;5023288;28;20396;-83
2022/05/28 11:05:01;;;;;;;0.10;0.10;;;15.10;99.90;;;;;;5022689;28;20214;-86
2022/05/28 11:07:51;;;;;;;0.30;0.30;;;15.30;99.90;;;;;;5023540;28;20225;-89
2022/05/28 11:10:32;;;;;;;0.50;0.47;;;15.00;99.90;;;;;;5023563;28;20636;-87
2022/05/28 11:13:26;;;;;;;1.43;0.77;;;15.10;99.90;;;;;;5024365;28;20218;-85
2022/05/28 11:16:06;;;;;;;4.00;1.03;;;15.20;99.90;;;;;;5025290;28;20210;-88
2022/05/28 11:19:13;;;;;;;1.23;0.73;;;15.50;99.90;;;;;;5023926;28;20212;-89
2022/05/28 11:22:21;;;;;;;3.50;1.50;;;15.60;99.90;;;;;;5023109;28;20222;-87
2022/05/28 11:24:55;;;;;;;0.67;0.63;;;15.70;99.90;;;;;;5024454;28;20221;-88
2022/05/28 11:27:39;;;;;;;0.83;0.67;;;15.40;99.90;;;;;;5022990;28;20225;-86
2022/05/28 11:30:20;;;;;;;0.37;0.37;;;15.50;99.90;;;;;;5024129;28;20289;-87
2022/05/28 11:33:02;;;;;;;5.83;1.20;;;15.10;99.90;;;;;;5024172;28;20532;-89
2022/05/28 11:35:42;;;;;;;3.57;0.60;;;15.60;99.90;;;;;;5024392;28;20257;-89
2022/05/28 11:38:21;;;;;;;0.97;0.47;;;15.80;99.90;;;;;;5024249;28;20217;-88
2022/05/28 11:41:31;;;;;;;3.03;1.77;;;14.90;99.90;;;;;;5022363;28;20257;-87
2022/05/28 11:44:19;;;;;;;1.00;0.90;;;14.30;99.90;;;;;;5023764;28;20295;-89
2022/05/28 11:46:54;;;;;;;0.47;0.47;;;14.60;99.90;;;;;;5023539;28;20233;-89
2022/05/28 11:52:34;;;;;;;3.93;0.73;;;14.90;99.90;;;;;;5024937;28;20257;-87
2022/05/28 11:55:16;;;;;;;0.40;0.40;;;15.10;99.90;;;;;;5035048;28;20237;-88
2022/05/28 11:57:57;;;;;;;0.30;0.30;;;15.20;99.90;;;;;;5027455;28;20218;-88
2022/05/28 12:00:25;;;;;;;0.60;0.47;;;15.20;99.90;;;;;;5024625;28;20331;-87
2022/05/28 12:03:26;;;;;;;0.30;0.30;;;15.00;99.90;;;;;;5024651;28;20190;-89
2022/05/28 12:06:07;;;;;;;2.53;1.53;;;15.00;99.90;;;;;;4979729;28;20659;-88
2022/05/28 12:08:43;;;;;;;1.13;1.03;;;15.20;99.90;;;;;;5023809;28;20210;-87
2022/05/28 12:12:00;;;;;;;0.70;0.57;;;15.10;99.90;;;;;;5024090;28;20229;-88
2022/05/28 12:14:38;;;;;;;0.33;0.30;;;15.10;99.90;;;;;;4946847;28;20225;-86
2022/05/28 12:17:07;;;;;;;2.93;0.67;;;15.00;99.90;;;;;;5016355;28;20953;-90
2022/05/28 12:19:34;;;;;;;1.40;0.30;;;15.00;99.90;;;;;;5023675;28;20226;-87
2022/05/28 12:22:31;;;;;;;1.13;0.63;;;15.00;99.90;;;;;;5006809;28;20225;-88
2022/05/28 12:25:11;;;;;;;4.07;0.77;;;15.20;99.90;;;;;;5023680;28;20226;-85
2022/05/28 12:27:42;;;;;;;1.23;0.40;;;15.20;99.90;;;;;;5022947;28;20210;-90
2022/05/28 12:30:23;;;;;;;0.50;0.50;;;14.80;99.90;;;;;;5022646;28;20278;-89
2022/05/28 12:32:50;;;;;;;0.73;0.73;;;15.10;99.90;;;;;;5023421;28;20191;-87
2022/05/28 12:35:16;;;;;;;2.17;0.40;;;15.70;99.90;;;;;;5006380;28;20229;-86
2022/05/28 12:38:10;;;;;;;0.83;0.83;;;15.10;99.90;;;;;;5022838;28;20226;-87
2022/05/28 12:40:51;;;;;;;0.40;0.40;;;14.60;99.90;;;;;;5026470;28;20679;-88
2022/05/28 12:43:32;;;;;;;0.30;0.30;;;14.70;99.90;;;;;;5044270;28;20745;-90
2022/05/28 12:46:16;;;;;;;3.47;0.93;;;15.40;99.90;;;;;;5028623;28;20230;-89
2022/05/28 12:48:43;;;;;;;1.10;0.47;;;15.30;99.90;;;;;;5027724;28;20228;-87
2022/05/28 12:51:27;;;;;;;6.47;1.90;;;14.60;99.90;;;;;;5027665;28;20230;-88
2022/05/28 12:53:58;;;;;;;0.83;0.67;;;15.10;99.90;;;;;;5028304;28;21011;-87
2022/05/28 12:56:44;;;;;;;0.60;0.60;;;15.20;99.90;;;;;;5028159;28;20236;-88
2022/05/28 12:59:27;;;;;;;3.17;1.57;;;15.20;99.90;;;;;;5028394;28;20250;-88
2022/05/28 13:01:55;;;;;;;0.73;0.20;;;15.60;99.90;;;;;;5028002;28;20211;-86
2022/05/28 13:04:23;;;;;;;1.07;0.70;;;15.70;99.90;;;;;;5028066;28;20333;-88
2022/05/28 13:06:55;;;;;;;0.90;0.40;;;15.90;99.90;;;;;;5028125;28;20226;-87
2022/05/28 13:09:27;;;;;;;0.90;0.50;;;15.70;99.90;;;;;;5027913;28;20322;-85
2022/05/28 13:12:28;;;;;;;0.77;0.77;;;15.80;99.90;;;;;;5028348;28;20696;-87
2022/05/28 13:15:19;;;;;;;2.63;0.63;;;15.80;99.90;;;;;;5016525;28;20856;-87
2022/05/28 13:18:29;;;;;;;2.70;0.80;;;15.10;99.90;;;;;;5017238;28;20316;-87